createdAt,value
2023-06-11T00:00:23.534Z,19.20
2023-06-11T00:05:31.430Z,19.20
2023-06-11T00:10:33.183Z,19.20
2023-06-11T00:15:34.931Z,19.20
2023-06-11T00:20:41.824Z,19.40
2023-06-11T00:25:43.623Z,19.20
2023-06-11T00:30:45.590Z,19.10
2023-06-11T00:35:47.394Z,19.10
2023-06-11T00:40:56.280Z,19.00
2023-06-11T00:45:58.202Z,19.00
2023-06-11T00:51:00.313Z,19.20
2023-06-11T00:56:02.915Z,19.20
2023-06-11T01:01:06.830Z,19.20
2023-06-11T01:06:18.226Z,19.00
2023-06-11T01:11:23.732Z,19.00
2023-06-11T01:16:44.123Z,19.10
2023-06-11T01:21:54.653Z,19.20
2023-06-11T01:27:09.506Z,19.30
2023-06-11T01:32:11.444Z,19.20
2023-06-11T01:37:13.246Z,19.10
2023-06-11T01:42:15.010Z,19.00
2023-06-11T01:47:16.837Z,18.80
2023-06-11T01:52:18.618Z,18.80
2023-06-11T01:57:20.394Z,18.90
2023-06-11T02:02:22.187Z,18.70
2023-06-11T02:07:24.126Z,18.70
2023-06-11T02:12:28.401Z,18.80
2023-06-11T02:17:30.308Z,18.70
2023-06-11T02:22:32.225Z,18.60
2023-06-11T02:27:34.009Z,18.70
2023-06-11T02:32:35.873Z,18.80
2023-06-11T02:37:37.664Z,18.60
2023-06-11T02:42:39.558Z,18.20
2023-06-11T02:47:41.360Z,18.20
2023-06-11T02:52:50.423Z,18.20
2023-06-11T02:57:52.159Z,18.30
2023-06-11T03:02:54.195Z,18.10
2023-06-11T03:07:56.128Z,18.00
2023-06-11T03:12:58.197Z,17.70
2023-06-11T03:18:04.499Z,17.50
2023-06-11T03:23:07.610Z,17.50
2023-06-11T03:28:09.598Z,17.60
2023-06-11T03:33:11.578Z,17.70
2023-06-11T03:38:13.401Z,17.80
2023-06-11T03:43:19.641Z,17.90
2023-06-11T03:48:21.565Z,17.90
2023-06-11T03:53:23.468Z,18.00
2023-06-11T03:58:25.249Z,18.20
2023-06-11T04:03:27.113Z,18.00
2023-06-11T04:08:28.915Z,18.10
2023-06-11T04:13:30.901Z,18.10
2023-06-11T04:18:32.724Z,18.00
2023-06-11T04:23:36.534Z,17.80
2023-06-11T04:28:38.493Z,17.80
2023-06-11T04:33:40.344Z,17.80
2023-06-11T04:38:46.113Z,18.00
2023-06-11T04:43:48.198Z,18.10
2023-06-11T04:48:51.527Z,18.40
2023-06-11T04:53:55.570Z,18.40
2023-06-11T04:58:57.379Z,18.40
2023-06-11T05:04:01.499Z,18.60
2023-06-11T05:09:04.434Z,18.70
2023-06-11T05:14:06.488Z,19.00
2023-06-11T05:19:08.386Z,19.20
2023-06-11T05:24:20.431Z,19.40
2023-06-11T05:29:22.941Z,19.60
2023-06-11T05:34:27.416Z,19.90
2023-06-11T05:39:34.687Z,20.20
2023-06-11T05:44:36.510Z,20.50
2023-06-11T05:49:38.300Z,20.70
2023-06-11T05:54:40.123Z,20.80
2023-06-11T05:59:41.893Z,21.20
2023-06-11T06:04:49.535Z,21.30
2023-06-11T06:09:51.732Z,21.40
2023-06-11T06:14:53.505Z,21.60
2023-06-11T06:19:56.393Z,21.90
2023-06-11T06:25:01.627Z,21.90
2023-06-11T06:30:07.131Z,22.30
2023-06-11T06:35:10.175Z,22.30
2023-06-11T06:40:13.665Z,22.60
2023-06-11T06:45:15.889Z,22.80
2023-06-11T06:50:17.768Z,23.10
2023-06-11T06:55:19.576Z,23.20
2023-06-11T07:00:21.719Z,23.50
2023-06-11T07:05:23.574Z,23.60
2023-06-11T07:10:25.696Z,24.00
2023-06-11T07:15:27.522Z,24.30
2023-06-11T07:20:29.516Z,24.50
2023-06-11T07:25:32.217Z,24.70
2023-06-11T07:30:34.717Z,24.90
2023-06-11T07:35:43.804Z,25.20
2023-06-11T07:40:45.774Z,25.30
2023-06-11T07:45:47.532Z,25.30
2023-06-11T07:50:50.457Z,25.60
2023-06-11T07:55:57.919Z,25.70
2023-06-11T08:00:59.857Z,26.00
2023-06-11T08:06:01.731Z,26.20
2023-06-11T08:11:03.598Z,26.30
2023-06-11T08:16:05.904Z,26.60
2023-06-11T08:21:07.771Z,26.70
2023-06-11T08:26:15.020Z,27.10
2023-06-11T08:31:16.994Z,27.20
2023-06-11T08:36:19.028Z,27.20
2023-06-11T08:41:21.769Z,27.60
2023-06-11T08:46:25.296Z,27.80
2023-06-11T08:51:35.093Z,27.80
2023-06-11T08:56:37.023Z,28.20
2023-06-11T09:01:47.152Z,28.20
2023-06-11T09:06:53.548Z,28.20
2023-06-11T09:11:55.835Z,28.40
2023-06-11T09:16:57.616Z,28.70
2023-06-11T09:21:59.579Z,28.70
2023-06-11T09:27:05.504Z,28.20
2023-06-11T09:32:19.482Z,28.70
2023-06-11T09:37:31.903Z,29.10
2023-06-11T09:42:36.830Z,28.90
2023-06-11T09:47:40.294Z,29.00
2023-06-11T09:52:43.304Z,29.40
2023-06-11T09:57:54.305Z,29.20
2023-06-11T10:02:56.218Z,29.90
2023-06-11T10:08:13.520Z,29.90
2023-06-11T10:13:34.484Z,29.40
2023-06-11T10:18:36.534Z,29.70
2023-06-11T10:23:44.920Z,30.20
2023-06-11T10:28:50.471Z,30.30
2023-06-11T10:33:52.492Z,31.10
2023-06-11T10:39:27.768Z,31.80
2023-06-11T10:44:32.894Z,31.80
2023-06-11T10:49:34.694Z,31.90
2023-06-11T10:54:38.150Z,31.30
2023-06-11T10:59:40.230Z,31.30
2023-06-11T11:04:52.804Z,31.70
2023-06-11T11:09:56.848Z,32.60
2023-06-11T11:15:00.447Z,32.90
2023-06-11T11:20:02.490Z,32.70
2023-06-11T11:25:06.331Z,33.30
2023-06-11T11:30:08.819Z,32.70
2023-06-11T11:35:13.205Z,31.50
2023-06-11T11:40:22.792Z,31.80
2023-06-11T11:45:33.256Z,32.60
2023-06-11T11:50:35.477Z,31.90
2023-06-11T12:00:54.603Z,32.80
2023-06-11T12:05:56.467Z,33.10
2023-06-11T12:10:59.456Z,33.80
2023-06-11T12:16:04.160Z,33.70
2023-06-11T12:21:08.425Z,33.10
2023-06-11T12:26:10.362Z,33.80
2023-06-11T12:31:12.230Z,33.30
2023-06-11T12:36:14.102Z,33.00
2023-06-11T12:41:16.911Z,31.50
2023-06-11T12:46:18.906Z,32.80
2023-06-11T12:51:23.792Z,33.70
2023-06-11T12:56:26.741Z,34.20
2023-06-11T13:01:28.732Z,32.90
2023-06-11T13:06:31.052Z,33.40
2023-06-11T13:11:33.467Z,33.80
2023-06-11T13:16:44.092Z,34.30
2023-06-11T13:21:46.425Z,33.00
2023-06-11T13:26:48.275Z,33.70
2023-06-11T13:31:50.944Z,34.50
2023-06-11T13:36:57.141Z,34.60
2023-06-11T13:41:59.225Z,34.20
2023-06-11T13:47:01.490Z,35.00
2023-06-11T13:52:04.964Z,35.00
2023-06-11T13:57:07.255Z,35.20
2023-06-11T14:02:09.270Z,34.60
2023-06-11T14:07:14.091Z,34.20
2023-06-11T14:12:16.004Z,34.60
2023-06-11T14:17:18.646Z,33.00
2023-06-11T14:22:21.807Z,32.50
2023-06-11T14:27:23.600Z,32.90
2023-06-11T14:32:28.817Z,33.50
2023-06-11T14:37:30.687Z,33.70
2023-06-11T14:42:32.464Z,34.10
2023-06-11T14:47:34.963Z,33.80
2023-06-11T14:52:36.923Z,33.40
2023-06-11T14:57:38.935Z,33.30
2023-06-11T15:02:40.919Z,33.90
2023-06-11T15:07:42.796Z,34.10
2023-06-11T15:12:52.716Z,34.00
2023-06-11T15:17:54.514Z,33.70
2023-06-11T15:22:56.323Z,34.20
2023-06-11T15:27:58.212Z,34.30
2023-06-11T15:33:00.203Z,33.90
2023-06-11T15:38:03.394Z,34.10
2023-06-11T15:43:05.246Z,34.40
2023-06-11T15:48:07.058Z,34.80
2023-06-11T15:53:11.966Z,34.50
2023-06-11T15:58:13.758Z,34.10
2023-06-11T16:03:16.424Z,33.00
2023-06-11T16:08:18.386Z,33.80
2023-06-11T16:13:20.196Z,32.60
2023-06-11T16:18:24.357Z,32.50
2023-06-11T16:23:26.310Z,33.10
2023-06-11T16:28:28.094Z,32.60
2023-06-11T16:33:43.715Z,32.10
2023-06-11T16:38:59.527Z,31.00
2023-06-11T16:44:05.649Z,30.60
2023-06-11T16:49:07.478Z,30.50
2023-06-11T16:54:09.445Z,30.40
2023-06-11T16:59:11.245Z,30.30
2023-06-11T17:04:13.183Z,30.10
2023-06-11T17:09:15.133Z,30.50
2023-06-11T17:14:17.093Z,30.90
2023-06-11T17:19:18.900Z,30.70
2023-06-11T17:24:20.854Z,29.90
2023-06-11T17:29:22.734Z,29.50
2023-06-11T17:34:24.653Z,29.50
2023-06-11T17:39:26.467Z,29.20
2023-06-11T17:44:33.977Z,29.20
2023-06-11T17:49:35.797Z,29.60
2023-06-11T17:54:38.078Z,29.80
2023-06-11T17:59:39.890Z,29.60
2023-06-11T18:04:41.704Z,29.50
2023-06-11T18:09:48.982Z,29.10
2023-06-11T18:14:51.075Z,29.10
2023-06-11T18:19:52.861Z,29.40
2023-06-11T18:24:55.037Z,29.40
2023-06-11T18:29:56.850Z,29.10
2023-06-11T18:34:58.596Z,29.00
2023-06-11T18:40:00.624Z,28.80
2023-06-11T18:45:02.451Z,28.50
2023-06-11T18:50:10.985Z,28.40
2023-06-11T18:55:13.409Z,28.20
2023-06-11T19:00:23.182Z,27.90
2023-06-11T19:05:25.142Z,27.50
2023-06-11T19:10:27.751Z,27.20
2023-06-11T19:15:29.546Z,27.00
2023-06-11T19:20:31.467Z,26.90
2023-06-11T19:25:42.582Z,26.80
2023-06-11T19:30:45.577Z,26.70
2023-06-11T19:35:47.473Z,26.50
2023-06-11T19:40:50.769Z,26.30
2023-06-11T19:45:52.538Z,26.20
2023-06-11T19:50:54.464Z,26.00
2023-06-11T19:55:56.551Z,25.80
2023-06-11T20:00:58.433Z,25.70
2023-06-11T20:06:03.084Z,25.70
2023-06-11T20:11:12.648Z,25.60
2023-06-11T20:16:15.011Z,25.70
2023-06-11T20:21:16.916Z,25.50
2023-06-11T20:26:18.932Z,25.30
2023-06-11T20:31:21.158Z,25.20
2023-06-11T20:36:23.078Z,25.10
2023-06-11T20:41:30.781Z,25.10
2023-06-11T20:46:32.916Z,24.90
2023-06-11T20:51:34.809Z,25.00
2023-06-11T20:56:36.643Z,24.80
2023-06-11T21:01:38.514Z,24.90
2023-06-11T21:06:40.711Z,24.70
2023-06-11T21:11:42.824Z,24.70
2023-06-11T21:16:44.820Z,24.60
2023-06-11T21:21:48.588Z,24.60
2023-06-11T21:26:50.575Z,24.60
2023-06-11T21:31:52.442Z,24.50
2023-06-11T21:36:54.348Z,24.50
2023-06-11T21:41:56.131Z,24.30
2023-06-11T21:46:59.951Z,24.40
2023-06-11T21:52:03.109Z,24.30
2023-06-11T21:57:05.429Z,24.30
2023-06-11T22:02:10.738Z,24.20
2023-06-11T22:07:14.429Z,24.20
2023-06-11T22:12:16.202Z,24.10
2023-06-11T22:17:18.378Z,24.10
2023-06-11T22:22:20.217Z,24.10
2023-06-11T22:27:27.328Z,24.00
2023-06-11T22:32:29.125Z,23.90
2023-06-11T22:37:31.238Z,23.90
2023-06-11T22:42:33.874Z,23.90
2023-06-11T22:47:36.545Z,23.80
2023-06-11T22:52:50.587Z,23.80
2023-06-11T22:57:52.600Z,23.70
2023-06-11T23:03:01.869Z,23.60
2023-06-11T23:08:03.989Z,23.60
2023-06-11T23:13:05.813Z,23.50
2023-06-11T23:18:10.726Z,23.30
2023-06-11T23:23:12.570Z,23.30
2023-06-11T23:28:14.441Z,23.10
2023-06-11T23:33:16.488Z,23.20
2023-06-11T23:38:18.348Z,23.10
2023-06-11T23:43:20.167Z,23.10
2023-06-11T23:48:22.008Z,23.00
2023-06-11T23:53:24.142Z,23.00
2023-06-11T23:58:26.003Z,22.80
